createdAt,value
2018-06-14T00:01:56.960Z,64.03
2018-06-14T00:04:25.487Z,64.58
2018-06-14T00:06:54.069Z,64.17
2018-06-14T00:09:22.855Z,64.50
2018-06-14T00:11:51.205Z,64.60
2018-06-14T00:14:19.745Z,64.59
2018-06-14T00:16:48.306Z,64.46
2018-06-14T00:19:17.194Z,65.15
2018-06-14T00:21:45.687Z,64.31
2018-06-14T00:24:14.976Z,64.24
2018-06-14T00:26:43.614Z,64.07
2018-06-14T00:29:12.179Z,64.39
2018-06-14T00:31:40.966Z,64.27
2018-06-14T00:34:11.312Z,63.76
2018-06-14T00:36:40.243Z,64.55
2018-06-14T00:39:10.068Z,64.46
2018-06-14T00:41:38.614Z,63.99
2018-06-14T00:44:07.818Z,63.38
2018-06-14T00:46:37.096Z,63.71
2018-06-14T00:49:05.427Z,63.72
2018-06-14T00:51:39.298Z,63.85
2018-06-14T00:54:07.744Z,63.67
2018-06-14T00:57:45.374Z,64.04
2018-06-14T01:00:13.681Z,63.72
2018-06-14T01:02:42.154Z,63.72
2018-06-14T01:05:10.559Z,64.03
2018-06-14T01:07:39.502Z,63.86
2018-06-14T01:10:08.912Z,63.49
2018-06-14T01:18:32.211Z,63.52
2018-06-14T01:21:00.790Z,63.09
2018-06-14T01:23:29.910Z,63.43
2018-06-14T01:26:04.066Z,63.76
2018-06-14T01:28:33.938Z,63.44
2018-06-14T01:31:07.346Z,63.89
2018-06-14T01:33:36.224Z,63.56
2018-06-14T01:36:04.720Z,64.29
2018-06-14T01:38:33.102Z,63.80
2018-06-14T01:43:53.823Z,64.53
2018-06-14T01:46:22.551Z,64.63
2018-06-14T01:48:51.346Z,64.37
2018-06-14T01:51:20.010Z,64.29
2018-06-14T01:53:48.346Z,64.48
2018-06-14T01:56:16.718Z,64.18
2018-06-14T01:58:44.972Z,64.48
2018-06-14T02:01:13.664Z,64.59
2018-06-14T02:03:42.076Z,64.61
2018-06-14T02:06:11.480Z,64.92
2018-06-14T02:08:39.836Z,65.17
2018-06-14T02:11:08.556Z,65.20
2018-06-14T02:13:36.887Z,65.38
2018-06-14T02:16:08.132Z,65.99
2018-06-14T02:18:37.909Z,65.71
2018-06-14T02:21:06.414Z,65.69
2018-06-14T02:23:35.223Z,65.88
2018-06-14T02:26:03.854Z,65.72
2018-06-14T02:28:33.121Z,65.97
2018-06-14T02:42:43.382Z,65.65
2018-06-14T02:45:12.272Z,65.56
2018-06-14T02:47:42.428Z,65.98
2018-06-14T02:50:11.015Z,66.18
2018-06-14T02:52:44.514Z,66.28
2018-06-14T02:55:13.038Z,66.30
2018-06-14T02:57:41.757Z,66.03
2018-06-14T03:00:10.401Z,66.19
2018-06-14T03:02:48.217Z,65.98
2018-06-14T03:05:16.765Z,66.31
2018-06-14T03:07:45.173Z,66.57
2018-06-14T03:10:13.623Z,66.11
2018-06-14T03:12:51.480Z,66.42
2018-06-14T03:15:20.060Z,66.13
2018-06-14T03:17:51.199Z,66.38
2018-06-14T03:20:23.691Z,66.38
2018-06-14T03:25:44.857Z,66.55
2018-06-14T03:28:13.285Z,66.60
2018-06-14T03:31:04.436Z,66.33
2018-06-14T03:33:32.766Z,66.88
2018-06-14T03:36:01.108Z,66.33
2018-06-14T03:38:30.101Z,66.36
2018-06-14T03:40:58.458Z,66.65
2018-06-14T03:43:26.772Z,66.26
2018-06-14T03:45:55.078Z,66.50
2018-06-14T03:48:25.550Z,65.76
2018-06-14T03:50:54.846Z,65.72
2018-06-14T03:53:23.920Z,65.67
2018-06-14T03:55:53.438Z,65.42
2018-06-14T03:58:22.233Z,65.36
2018-06-14T04:00:50.978Z,65.98
2018-06-14T04:03:19.694Z,65.97
2018-06-14T04:05:48.518Z,64.97
2018-06-14T04:08:17.851Z,64.93
2018-06-14T04:10:47.356Z,65.21
2018-06-14T04:13:15.847Z,64.98
2018-06-14T04:15:44.354Z,64.88
2018-06-14T04:18:13.166Z,64.85
2018-06-14T04:20:55.412Z,64.62
2018-06-14T04:23:23.744Z,65.21
2018-06-14T04:25:52.150Z,65.13
2018-06-14T04:28:20.710Z,65.40
2018-06-14T04:30:50.820Z,64.76
2018-06-14T04:33:19.506Z,64.84
2018-06-14T04:35:48.354Z,64.85
2018-06-14T04:38:18.876Z,65.00
2018-06-14T04:41:10.063Z,65.15
2018-06-14T04:43:38.600Z,65.18
2018-06-14T04:46:07.647Z,64.95
2018-06-14T04:48:36.120Z,65.12
2018-06-14T04:51:09.710Z,64.75
2018-06-14T04:53:41.282Z,64.40
2018-06-14T04:56:12.753Z,64.75
2018-06-14T04:58:42.822Z,64.30
2018-06-14T05:04:18.448Z,64.07
2018-06-14T05:06:48.156Z,64.33
2018-06-14T05:09:16.706Z,64.44
2018-06-14T05:14:38.357Z,64.07
2018-06-14T05:17:06.808Z,63.92
2018-06-14T05:19:35.219Z,64.09
2018-06-14T05:22:03.881Z,63.98
2018-06-14T05:24:33.016Z,63.77
2018-06-14T05:27:02.108Z,63.30
2018-06-14T05:29:32.318Z,63.40
2018-06-14T05:32:02.456Z,63.17
2018-06-14T05:34:31.786Z,63.23
2018-06-14T05:37:00.197Z,62.93
2018-06-14T05:39:28.634Z,63.78
2018-06-14T05:41:57.279Z,63.07
2018-06-14T05:44:25.763Z,63.08
2018-06-14T05:46:54.219Z,62.66
2018-06-14T05:49:22.839Z,62.67
2018-06-14T05:55:03.001Z,61.33
2018-06-14T05:57:31.391Z,61.33
2018-06-14T06:00:00.295Z,61.43
2018-06-14T06:02:29.191Z,60.36
2018-06-14T06:04:59.813Z,60.55
2018-06-14T06:07:29.481Z,60.07
2018-06-14T06:09:57.962Z,59.88
2018-06-14T06:12:27.805Z,59.17
2018-06-14T06:14:57.350Z,59.43
2018-06-14T06:17:26.143Z,58.55
2018-06-14T06:19:55.112Z,58.57
2018-06-14T06:22:24.784Z,56.93
2018-06-14T06:24:53.218Z,56.33
2018-06-14T06:27:21.700Z,56.11
2018-06-14T06:29:50.249Z,56.00
2018-06-14T06:32:28.144Z,56.05
2018-06-14T06:34:57.547Z,54.89
2018-06-14T06:40:18.783Z,54.80
2018-06-14T06:54:19.151Z,53.29
2018-06-14T06:56:47.601Z,54.04
2018-06-14T06:59:16.091Z,54.40
2018-06-14T07:01:44.709Z,53.70
2018-06-14T07:04:13.193Z,53.95
2018-06-14T07:06:41.663Z,53.27
2018-06-14T07:09:11.593Z,54.01
2018-06-14T07:17:25.990Z,53.09
2018-06-14T07:19:54.722Z,52.19
2018-06-14T07:22:23.257Z,53.09
2018-06-14T07:24:51.686Z,51.46
2018-06-14T07:27:20.165Z,52.50
2018-06-14T07:29:48.921Z,52.75
2018-06-14T07:32:22.453Z,52.63
2018-06-14T07:34:50.884Z,52.82
2018-06-14T07:37:19.355Z,52.01
2018-06-14T07:39:47.863Z,52.83
2018-06-14T07:42:16.418Z,52.66
2018-06-14T07:44:44.911Z,52.64
2018-06-14T07:47:13.338Z,52.48
2018-06-14T07:49:41.814Z,52.70
2018-06-14T07:58:05.478Z,51.43
2018-06-14T08:00:34.015Z,52.96
2018-06-14T08:03:03.017Z,52.99
2018-06-14T08:05:31.461Z,52.48
2018-06-14T08:07:59.968Z,51.56
2018-06-14T08:10:28.478Z,51.98
2018-06-14T08:12:56.980Z,52.52
2018-06-14T08:15:25.481Z,51.67
2018-06-14T08:17:54.877Z,50.80
2018-06-14T08:20:23.255Z,50.37
2018-06-14T08:22:51.804Z,50.05
2018-06-14T08:25:20.218Z,49.79
2018-06-14T08:27:49.696Z,49.73
2018-06-14T08:30:18.166Z,49.71
2018-06-14T08:35:39.953Z,49.61
2018-06-14T08:38:08.448Z,50.58
2018-06-14T08:40:36.915Z,50.40
2018-06-14T08:43:05.352Z,50.60
2018-06-14T08:45:33.785Z,49.10
2018-06-14T08:48:02.286Z,48.63
2018-06-14T08:50:30.723Z,48.59
2018-06-14T08:52:59.242Z,48.99
2018-06-14T08:55:27.923Z,48.18
2018-06-14T08:57:56.290Z,48.69
2018-06-14T09:00:24.726Z,48.98
2018-06-14T09:02:53.201Z,49.48
2018-06-14T09:05:21.582Z,49.60
2018-06-14T09:07:49.958Z,50.33
2018-06-14T09:10:18.358Z,48.84
2018-06-14T09:12:46.886Z,48.77
2018-06-14T09:15:15.220Z,48.75
2018-06-14T09:17:43.622Z,48.80
2018-06-14T09:20:12.005Z,49.10
2018-06-14T09:22:40.414Z,49.23
2018-06-14T09:25:08.821Z,48.22
2018-06-14T09:27:37.214Z,48.19
2018-06-14T09:30:05.602Z,48.32
2018-06-14T09:32:33.976Z,48.05
2018-06-14T09:35:02.361Z,48.27
2018-06-14T09:37:30.729Z,47.98
2018-06-14T09:39:59.154Z,48.77
2018-06-14T09:42:27.610Z,48.08
2018-06-14T09:44:55.986Z,47.65
2018-06-14T09:47:24.454Z,47.78
2018-06-14T09:49:52.847Z,46.94
2018-06-14T09:52:26.666Z,45.55
2018-06-14T09:54:55.818Z,45.70
2018-06-14T09:57:24.319Z,44.52
2018-06-14T09:59:52.816Z,45.27
2018-06-14T10:02:21.565Z,44.70
2018-06-14T10:04:49.926Z,44.93
2018-06-14T10:07:18.762Z,43.87
2018-06-14T10:09:47.198Z,42.83
2018-06-14T10:12:15.614Z,43.21
2018-06-14T10:14:44.097Z,44.29
2018-06-14T10:17:12.580Z,43.74
2018-06-14T10:19:41.003Z,43.79
2018-06-14T10:22:14.762Z,43.63
2018-06-14T10:24:43.155Z,44.20
2018-06-14T10:27:30.676Z,43.95
2018-06-14T10:29:59.150Z,44.52
2018-06-14T10:32:27.646Z,44.95
2018-06-14T10:34:56.021Z,45.30
2018-06-14T10:37:24.503Z,44.82
2018-06-14T10:39:52.918Z,44.27
2018-06-14T10:42:21.356Z,45.32
2018-06-14T10:44:50.020Z,44.07
2018-06-14T10:47:18.436Z,43.06
2018-06-14T10:49:46.892Z,42.81
2018-06-14T10:52:15.616Z,44.11
2018-06-14T10:54:43.978Z,42.98
2018-06-14T10:57:12.482Z,42.30
2018-06-14T10:59:41.130Z,42.51
2018-06-14T11:02:09.770Z,41.31
2018-06-14T11:04:38.482Z,42.08
2018-06-14T11:07:06.994Z,40.76
2018-06-14T11:09:35.358Z,40.10
2018-06-14T11:12:03.883Z,40.66
2018-06-14T11:14:32.250Z,40.44
2018-06-14T11:17:00.660Z,39.89
2018-06-14T11:19:29.130Z,39.53
2018-06-14T11:21:57.872Z,38.46
2018-06-14T11:24:26.294Z,39.66
2018-06-14T11:26:55.569Z,38.82
2018-06-14T11:29:23.985Z,39.33
2018-06-14T11:31:52.779Z,40.13
2018-06-14T11:34:21.184Z,39.19
2018-06-14T11:36:50.027Z,39.70
2018-06-14T11:39:18.609Z,38.53
2018-06-14T11:41:47.478Z,39.14
2018-06-14T11:44:15.894Z,38.39
2018-06-14T11:46:44.362Z,39.08
2018-06-14T11:49:12.795Z,39.63
2018-06-14T11:51:41.182Z,40.36
2018-06-14T11:54:09.663Z,40.12
2018-06-14T11:56:38.088Z,41.13
2018-06-14T11:59:06.443Z,41.41
2018-06-14T12:01:35.082Z,41.51
2018-06-14T12:04:03.607Z,40.97
2018-06-14T12:06:32.129Z,40.31
2018-06-14T12:09:00.623Z,39.87
2018-06-14T12:11:29.080Z,38.57
2018-06-14T12:13:57.684Z,37.22
2018-06-14T12:16:26.087Z,36.83
2018-06-14T12:18:55.920Z,37.07
2018-06-14T12:21:24.463Z,37.24
2018-06-14T12:23:52.957Z,37.35
2018-06-14T12:26:21.814Z,36.63
2018-06-14T12:28:50.271Z,36.75
2018-06-14T12:31:18.858Z,37.05
2018-06-14T12:33:47.224Z,38.50
2018-06-14T12:36:15.853Z,38.03
2018-06-14T12:38:44.349Z,37.48
2018-06-14T12:41:12.704Z,37.72
2018-06-14T12:43:41.679Z,38.23
2018-06-14T12:46:10.289Z,37.36
2018-06-14T12:48:38.633Z,38.44
2018-06-14T12:51:07.089Z,37.46
2018-06-14T12:53:35.603Z,36.08
2018-06-14T12:56:04.053Z,36.58
2018-06-14T12:58:32.535Z,36.51
2018-06-14T13:01:01.047Z,36.25
2018-06-14T13:03:29.618Z,35.60
2018-06-14T13:05:58.009Z,36.30
2018-06-14T13:08:26.534Z,36.60
2018-06-14T13:10:55.043Z,36.98
2018-06-14T13:13:23.457Z,37.29
2018-06-14T13:15:52.202Z,36.96
2018-06-14T13:18:20.590Z,37.44
2018-06-14T13:20:49.045Z,36.94
2018-06-14T13:23:17.448Z,35.05
2018-06-14T13:25:45.826Z,35.44
2018-06-14T13:28:15.957Z,36.45
2018-06-14T13:30:45.776Z,36.92
2018-06-14T13:33:14.983Z,37.00
2018-06-14T13:35:43.546Z,37.58
2018-06-14T13:38:12.192Z,36.53
2018-06-14T13:40:40.710Z,37.61
2018-06-14T13:43:09.109Z,36.51
2018-06-14T13:45:38.309Z,35.53
2018-06-14T13:48:07.384Z,36.18
2018-06-14T13:50:35.781Z,35.75
2018-06-14T13:53:05.035Z,36.16
2018-06-14T13:58:09.106Z,35.98
2018-06-14T14:00:37.641Z,34.99
2018-06-14T14:03:06.701Z,35.40
2018-06-14T14:05:35.152Z,34.78
2018-06-14T14:08:04.142Z,34.56
2018-06-14T14:10:33.056Z,34.73
2018-06-14T14:13:01.618Z,34.89
2018-06-14T14:15:30.453Z,35.55
2018-06-14T14:17:59.114Z,35.38
2018-06-14T14:20:27.518Z,34.75
2018-06-14T14:22:56.245Z,35.63
2018-06-14T14:25:26.016Z,35.45
2018-06-14T14:27:54.703Z,35.36
2018-06-14T14:30:23.308Z,35.21
2018-06-14T14:33:01.757Z,35.05
2018-06-14T14:35:31.344Z,35.93
2018-06-14T14:38:00.314Z,35.85
2018-06-14T14:40:29.218Z,36.07
2018-06-14T14:43:03.332Z,35.43
2018-06-14T14:45:33.037Z,34.93
2018-06-14T14:48:02.138Z,34.97
2018-06-14T14:50:30.884Z,35.57
2018-06-14T14:52:59.438Z,35.27
2018-06-14T14:55:27.893Z,35.11
2018-06-14T14:57:56.888Z,35.47
2018-06-14T15:00:25.399Z,35.27
2018-06-14T15:02:54.866Z,34.32
2018-06-14T15:05:26.365Z,34.52
2018-06-14T15:07:55.766Z,35.08
2018-06-14T15:10:24.675Z,34.65
2018-06-14T15:12:54.118Z,34.77
2018-06-14T15:15:24.446Z,35.07
2018-06-14T15:17:53.154Z,35.75
2018-06-14T15:20:21.578Z,35.29
2018-06-14T15:22:51.088Z,35.75
2018-06-14T15:25:19.654Z,35.99
2018-06-14T15:27:48.118Z,36.34
2018-06-14T15:30:16.592Z,35.56
2018-06-14T15:32:45.974Z,35.80
2018-06-14T15:35:14.561Z,36.06
2018-06-14T15:37:43.190Z,36.51
2018-06-14T15:40:12.026Z,36.05
2018-06-14T15:42:41.676Z,37.07
2018-06-14T15:45:10.178Z,37.22
2018-06-14T15:47:38.654Z,37.44
2018-06-14T15:50:08.104Z,36.81
2018-06-14T15:52:36.786Z,37.34
2018-06-14T15:55:16.458Z,37.04
2018-06-14T15:57:44.938Z,37.77
2018-06-14T16:00:13.549Z,36.91
2018-06-14T16:02:41.993Z,36.63
2018-06-14T16:05:15.843Z,37.36
2018-06-14T16:07:44.688Z,36.67
2018-06-14T16:10:14.002Z,36.77
2018-06-14T16:12:42.498Z,36.84
2018-06-14T16:15:10.977Z,37.25
2018-06-14T16:17:39.410Z,37.28
2018-06-14T16:20:07.950Z,38.16
2018-06-14T16:22:36.637Z,37.58
2018-06-14T16:25:05.104Z,37.92
2018-06-14T16:27:33.611Z,37.93
2018-06-14T16:30:02.257Z,37.84
2018-06-14T16:32:30.784Z,37.77
2018-06-14T16:34:59.296Z,37.88
2018-06-14T16:37:27.675Z,37.77
2018-06-14T16:39:56.160Z,38.73
2018-06-14T16:42:24.750Z,38.66
2018-06-14T16:44:53.226Z,38.31
2018-06-14T16:47:21.715Z,38.49
2018-06-14T16:49:50.204Z,38.19
2018-06-14T16:52:19.053Z,38.65
2018-06-14T16:54:47.599Z,38.90
2018-06-14T16:57:16.096Z,38.17
2018-06-14T16:59:44.710Z,39.00
2018-06-14T17:02:13.370Z,38.75
2018-06-14T17:04:41.854Z,38.97
2018-06-14T17:07:10.358Z,38.12
2018-06-14T17:09:38.835Z,38.18
2018-06-14T17:12:07.366Z,39.02
2018-06-14T17:14:35.922Z,38.65
2018-06-14T17:17:04.308Z,38.68
2018-06-14T17:19:32.713Z,38.56
2018-06-14T17:22:01.084Z,38.46
2018-06-14T17:24:29.420Z,38.46
2018-06-14T17:26:58.018Z,38.12
2018-06-14T17:29:27.367Z,38.22
2018-06-14T17:31:56.052Z,38.00
2018-06-14T17:34:24.577Z,38.12
2018-06-14T17:36:55.248Z,37.83
2018-06-14T17:39:24.015Z,38.29
2018-06-14T17:41:54.133Z,38.58
2018-06-14T17:44:23.635Z,39.01
2018-06-14T17:46:53.651Z,38.75
2018-06-14T17:49:22.785Z,38.35
2018-06-14T17:51:51.594Z,39.13
2018-06-14T17:54:20.676Z,39.14
2018-06-14T17:56:49.458Z,39.18
2018-06-14T17:59:18.629Z,39.23
2018-06-14T18:01:47.207Z,38.75
2018-06-14T18:04:15.840Z,38.55
2018-06-14T18:06:44.456Z,39.12
2018-06-14T18:09:13.179Z,39.09
2018-06-14T18:11:41.800Z,39.18
2018-06-14T18:14:10.367Z,39.34
2018-06-14T18:16:39.233Z,39.90
2018-06-14T18:19:08.375Z,40.05
2018-06-14T18:21:42.419Z,39.69
2018-06-14T18:24:14.599Z,39.77
2018-06-14T18:26:47.606Z,40.45
2018-06-14T18:29:16.333Z,40.27
2018-06-14T18:31:45.003Z,40.39
2018-06-14T18:34:13.718Z,40.03
2018-06-14T18:36:42.348Z,40.09
2018-06-14T18:39:11.754Z,40.13
2018-06-14T18:41:45.681Z,39.96
2018-06-14T18:44:15.440Z,40.32
2018-06-14T18:46:45.299Z,40.13
2018-06-14T18:49:14.815Z,40.13
2018-06-14T18:51:43.863Z,40.57
2018-06-14T18:54:12.605Z,40.37
2018-06-14T18:56:41.199Z,40.89
2018-06-14T18:59:09.783Z,40.19
2018-06-14T19:01:38.553Z,41.07
2018-06-14T19:04:08.347Z,41.45
2018-06-14T19:06:38.475Z,41.78
2018-06-14T19:09:09.399Z,42.19
2018-06-14T19:11:38.088Z,41.63
2018-06-14T19:14:06.933Z,42.58
2018-06-14T19:16:36.677Z,42.39
2018-06-14T19:19:05.435Z,42.88
2018-06-14T19:21:34.273Z,42.51
2018-06-14T19:24:03.216Z,42.35
2018-06-14T19:26:32.150Z,42.63
2018-06-14T19:29:01.200Z,42.84
2018-06-14T19:31:39.099Z,42.82
2018-06-14T19:34:07.607Z,42.95
2018-06-14T19:36:36.296Z,43.29
2018-06-14T19:39:06.850Z,43.09
2018-06-14T19:41:40.609Z,43.35
2018-06-14T19:44:09.049Z,44.17
2018-06-14T19:46:38.131Z,44.10
2018-06-14T19:49:06.679Z,44.61
2018-06-14T19:51:40.467Z,44.61
2018-06-14T19:54:09.198Z,45.48
2018-06-14T19:56:37.805Z,45.72
2018-06-14T19:59:06.735Z,46.15
2018-06-14T20:01:36.094Z,45.85
2018-06-14T20:04:05.432Z,46.64
2018-06-14T20:06:34.471Z,46.63
2018-06-14T20:09:04.351Z,46.77
2018-06-14T20:11:33.585Z,47.16
2018-06-14T20:14:02.872Z,47.04
2018-06-14T20:16:31.760Z,47.53
2018-06-14T20:19:00.471Z,47.55
2018-06-14T20:21:29.243Z,47.59
2018-06-14T20:23:58.949Z,48.39
2018-06-14T20:26:27.513Z,48.70
2018-06-14T20:28:56.113Z,48.48
2018-06-14T20:31:24.855Z,49.39
2018-06-14T20:33:53.302Z,49.35
2018-06-14T20:36:22.294Z,50.28
2018-06-14T20:38:50.867Z,50.53
2018-06-14T20:41:19.493Z,50.63
2018-06-14T20:43:48.096Z,50.81
2018-06-14T20:46:16.829Z,50.59
2018-06-14T20:48:45.282Z,50.69
2018-06-14T20:51:13.741Z,50.20
2018-06-14T20:53:42.191Z,50.71
2018-06-14T20:56:10.825Z,50.41
2018-06-14T20:58:39.213Z,51.01
2018-06-14T21:01:07.778Z,51.07
2018-06-14T21:03:36.176Z,51.55
2018-06-14T21:06:04.708Z,51.46
2018-06-14T21:08:33.183Z,51.19
2018-06-14T21:11:01.675Z,52.38
2018-06-14T21:13:30.107Z,53.00
2018-06-14T21:15:58.425Z,53.52
2018-06-14T21:18:26.845Z,53.79
2018-06-14T21:20:55.217Z,54.18
2018-06-14T21:23:23.887Z,54.51
2018-06-14T21:25:52.517Z,54.46
2018-06-14T21:28:20.847Z,54.67
2018-06-14T21:30:49.322Z,55.16
2018-06-14T21:33:17.824Z,54.77
2018-06-14T21:35:46.233Z,54.38
2018-06-14T21:38:14.652Z,53.98
2018-06-14T21:40:43.091Z,54.47
2018-06-14T21:43:11.525Z,54.33
2018-06-14T21:45:39.965Z,53.99
2018-06-14T21:48:08.284Z,53.85
2018-06-14T21:50:36.614Z,53.99
2018-06-14T21:53:05.018Z,54.29
2018-06-14T21:55:33.480Z,54.56
2018-06-14T21:58:01.865Z,54.68
2018-06-14T22:00:30.172Z,54.32
2018-06-14T22:03:03.913Z,54.69
2018-06-14T22:05:32.307Z,54.41
2018-06-14T22:08:00.728Z,54.18
2018-06-14T22:10:29.322Z,54.25
2018-06-14T22:12:58.486Z,54.25
2018-06-14T22:15:27.530Z,54.42
2018-06-14T22:17:55.970Z,53.97
2018-06-14T22:20:24.309Z,54.06
2018-06-14T22:22:52.746Z,53.77
2018-06-14T22:25:21.169Z,54.23
2018-06-14T22:27:49.505Z,54.15
2018-06-14T22:30:17.885Z,54.32
2018-06-14T22:32:46.868Z,54.40
2018-06-14T22:35:28.845Z,54.57
2018-06-14T22:37:57.349Z,54.33
2018-06-14T22:40:25.957Z,54.70
2018-06-14T22:42:54.344Z,54.35
2018-06-14T22:45:22.703Z,54.52
2018-06-14T22:47:51.125Z,54.85
2018-06-14T22:50:31.117Z,54.98
2018-06-14T22:53:05.327Z,55.12
2018-06-14T22:55:33.746Z,54.91
2018-06-14T22:58:02.106Z,54.73
2018-06-14T23:00:40.191Z,54.95
2018-06-14T23:03:08.671Z,54.84
2018-06-14T23:05:37.152Z,54.47
2018-06-14T23:08:05.520Z,54.41
2018-06-14T23:10:45.359Z,54.70
2018-06-14T23:13:20.005Z,55.13
2018-06-14T23:15:48.391Z,55.31
2018-06-14T23:18:16.686Z,55.04
2018-06-14T23:20:45.027Z,55.71
2018-06-14T23:23:13.365Z,55.34
2018-06-14T23:25:41.763Z,55.71
2018-06-14T23:28:10.221Z,55.87
2018-06-14T23:30:38.761Z,55.61
2018-06-14T23:33:12.633Z,55.92
2018-06-14T23:35:41.357Z,55.78
2018-06-14T23:38:09.732Z,56.50
2018-06-14T23:40:38.041Z,56.67
2018-06-14T23:43:06.928Z,56.11
2018-06-14T23:45:35.577Z,55.99
2018-06-14T23:48:04.292Z,56.17
2018-06-14T23:50:33.203Z,55.18
2018-06-14T23:53:01.892Z,55.32
2018-06-14T23:55:31.522Z,54.91
2018-06-14T23:58:00.163Z,54.86
